Time;durP1;ratioP1;P1;durP2;ratioP2;P2;SDS_P1;SDS_P2;PMS_P1;PMS_P2;Temp;Humidity;BMP_temperature;BMP_pressure;BME280_temperature;BME280_humidity;BME280_pressure;Samples;Min_cycle;Max_cycle;Signal;HPM_P1;HPM_P2
2024/01/02 00:01:41;;;;;;;0.80;0.80;;;6.80;99.90;;;;;;5139298;27;20176;-81
2024/01/02 00:04:07;;;;;;;0.80;0.80;;;6.80;99.90;;;;;;5140557;27;20232;-81
2024/01/02 00:06:32;;;;;;;0.70;0.70;;;6.80;99.90;;;;;;5137938;27;20342;-82
2024/01/02 00:08:58;;;;;;;0.70;0.70;;;6.80;99.90;;;;;;5119773;27;20203;-81
2024/01/02 00:11:23;;;;;;;0.70;0.70;;;6.80;99.90;;;;;;5126627;27;20160;-80
2024/01/02 00:13:49;;;;;;;0.60;0.60;;;6.80;99.90;;;;;;5136411;27;20215;-81
2024/01/02 00:16:14;;;;;;;0.73;0.73;;;6.80;99.90;;;;;;5139155;27;20188;-81
2024/01/02 00:18:40;;;;;;;0.70;0.70;;;6.90;99.90;;;;;;5138928;27;20179;-81
2024/01/02 00:21:05;;;;;;;0.77;0.77;;;6.90;99.90;;;;;;5139219;27;20187;-80
2024/01/02 00:23:31;;;;;;;0.70;0.70;;;6.80;99.90;;;;;;5126070;27;20177;-82
2024/01/02 00:25:57;;;;;;;0.70;0.70;;;6.80;99.90;;;;;;5119703;28;20224;-81
2024/01/02 00:28:22;;;;;;;0.70;0.70;;;6.80;99.90;;;;;;5119268;28;20173;-80
2024/01/02 00:30:48;;;;;;;0.80;0.80;;;6.90;99.90;;;;;;5120111;28;20189;-80
2024/01/02 00:33:14;;;;;;;0.80;0.80;;;6.90;99.90;;;;;;5119991;28;20208;-81
2024/01/02 00:35:41;;;;;;;0.67;0.67;;;6.90;99.90;;;;;;5118929;28;20202;-81
2024/01/02 00:38:10;;;;;;;0.70;0.70;;;7.00;99.90;;;;;;5119731;28;20169;-81
2024/01/02 00:40:36;;;;;;;0.70;0.70;;;7.00;99.90;;;;;;5120434;28;20173;-81
2024/01/02 00:43:02;;;;;;;0.80;0.80;;;7.10;99.90;;;;;;5120764;28;20177;-81
2024/01/02 00:45:28;;;;;;;0.80;0.80;;;7.00;99.90;;;;;;5122098;28;20177;-79
2024/01/02 00:47:54;;;;;;;0.70;0.70;;;7.00;99.90;;;;;;5120492;28;20184;-80
2024/01/02 00:50:21;;;;;;;0.70;0.70;;;7.00;99.90;;;;;;5120428;28;20178;-81
2024/01/02 00:52:47;;;;;;;0.77;0.77;;;7.00;99.90;;;;;;5131759;27;20173;-82
2024/01/02 00:55:12;;;;;;;0.80;0.80;;;7.00;99.90;;;;;;5140582;27;20616;-82
2024/01/02 00:57:38;;;;;;;0.70;0.70;;;7.00;99.90;;;;;;5139773;27;20192;-81
2024/01/02 01:00:05;;;;;;;0.70;0.70;;;6.90;99.90;;;;;;5140519;27;20240;-82
2024/01/02 01:02:31;;;;;;;0.77;0.77;;;6.90;99.90;;;;;;5144774;27;20177;-79
2024/01/02 01:04:56;;;;;;;0.80;0.80;;;6.90;99.90;;;;;;5144637;27;20184;-78
2024/01/02 01:07:22;;;;;;;0.80;0.80;;;6.90;99.90;;;;;;5136692;27;20221;-78
2024/01/02 01:09:47;;;;;;;0.80;0.80;;;7.00;99.90;;;;;;5128690;28;20173;-78
2024/01/02 01:12:13;;;;;;;0.80;0.80;;;7.00;99.90;;;;;;5124984;28;20219;-82
2024/01/02 01:14:39;;;;;;;0.80;0.80;;;7.00;99.90;;;;;;5119436;28;20208;-81
2024/01/02 01:17:05;;;;;;;0.80;0.80;;;7.00;99.90;;;;;;5119568;28;20185;-81
2024/01/02 01:19:32;;;;;;;0.70;0.70;;;7.30;99.90;;;;;;5122667;28;20181;-78
2024/01/02 01:21:58;;;;;;;0.70;0.70;;;7.10;99.90;;;;;;5123593;28;20355;-79
2024/01/02 01:24:23;;;;;;;0.70;0.70;;;7.10;99.90;;;;;;5134041;28;20201;-77
2024/01/02 01:26:52;;;;;;;0.70;0.70;;;7.20;99.90;;;;;;5136047;28;20177;-80
2024/01/02 01:29:22;;;;;;;0.80;0.80;;;7.20;99.90;;;;;;5137633;28;20241;-78
2024/01/02 01:31:48;;;;;;;0.63;0.63;;;7.10;99.90;;;;;;5155871;28;20176;-77
2024/01/02 01:34:14;;;;;;;0.80;0.80;;;7.10;99.90;;;;;;5154510;27;20229;-77
2024/01/02 01:36:40;;;;;;;0.77;0.77;;;7.10;99.90;;;;;;5153234;27;20199;-81
2024/01/02 01:39:05;;;;;;;0.70;0.70;;;7.10;99.90;;;;;;5140258;27;20169;-81
2024/01/02 01:41:31;;;;;;;0.80;0.80;;;7.10;99.90;;;;;;5140241;27;20184;-82
2024/01/02 01:43:58;;;;;;;0.80;0.80;;;7.10;99.90;;;;;;5140037;27;20188;-82
2024/01/02 01:46:25;;;;;;;0.73;0.73;;;7.10;99.90;;;;;;5138580;28;20196;-81
2024/01/02 01:48:51;;;;;;;0.70;0.70;;;7.10;99.90;;;;;;5138348;27;20165;-81
2024/01/02 01:51:17;;;;;;;0.80;0.80;;;7.00;99.90;;;;;;5138378;28;20195;-81
2024/01/02 01:53:45;;;;;;;0.70;0.70;;;7.00;99.90;;;;;;5139854;27;20240;-81
2024/01/02 01:56:11;;;;;;;0.80;0.80;;;7.00;1.00;;;;;;5138923;28;20185;-79
2024/01/02 01:58:38;;;;;;;0.87;0.87;;;6.90;1.00;;;;;;5117534;27;20309;-81
2024/01/02 02:01:04;;;;;;;0.70;0.70;;;7.00;99.90;;;;;;5114183;27;20184;-79
2024/01/02 02:03:32;;;;;;;0.80;0.80;;;7.00;99.90;;;;;;5114717;28;20177;-81
2024/01/02 02:05:57;;;;;;;0.80;0.80;;;7.00;99.90;;;;;;5117043;28;20200;-81
2024/01/02 02:08:23;;;;;;;0.70;0.70;;;7.10;99.90;;;;;;5120019;28;20213;-81
2024/01/02 02:10:49;;;;;;;0.80;0.80;;;7.10;99.90;;;;;;5117727;28;20173;-82
2024/01/02 02:13:16;;;;;;;0.70;0.70;;;7.10;99.90;;;;;;5118107;28;20225;-80
2024/01/02 02:15:42;;;;;;;0.90;0.90;;;7.10;1.00;;;;;;5123304;28;20210;-81
2024/01/02 02:18:08;;;;;;;0.70;0.70;;;7.10;1.00;;;;;;5142049;27;20173;-80
2024/01/02 02:20:34;;;;;;;0.80;0.80;;;7.10;1.00;;;;;;5141875;27;20176;-81
2024/01/02 02:22:59;;;;;;;0.77;0.77;;;7.10;1.00;;;;;;5141689;27;20183;-82
2024/01/02 02:25:26;;;;;;;0.80;0.80;;;7.10;1.00;;;;;;5132958;27;20173;-81
2024/01/02 02:27:52;;;;;;;0.73;0.73;;;7.20;1.00;;;;;;5121350;28;20177;-81
2024/01/02 02:30:18;;;;;;;0.80;0.80;;;7.20;99.90;;;;;;5121268;28;20176;-81
2024/01/02 02:32:43;;;;;;;0.90;0.90;;;7.30;99.90;;;;;;5121763;28;20177;-81
2024/01/02 02:35:09;;;;;;;0.80;0.80;;;7.30;1.00;;;;;;5120636;28;20200;-82
2024/01/02 02:37:35;;;;;;;0.80;0.80;;;7.30;99.90;;;;;;5135518;27;20192;-80
2024/01/02 02:40:00;;;;;;;0.70;0.70;;;7.20;99.90;;;;;;5141506;27;20652;-81
2024/01/02 02:42:26;;;;;;;0.87;0.87;;;7.20;1.00;;;;;;5142088;27;20168;-81
2024/01/02 02:44:52;;;;;;;0.80;0.80;;;7.20;1.00;;;;;;5141712;27;20168;-81
2024/01/02 02:47:17;;;;;;;0.80;0.80;;;7.30;1.00;;;;;;5139514;27;20189;-81
2024/01/02 02:49:43;;;;;;;0.83;0.83;;;7.20;99.90;;;;;;5141970;27;20176;-80
2024/01/02 02:52:09;;;;;;;0.80;0.80;;;7.30;1.00;;;;;;5140396;27;20182;-81
2024/01/02 02:54:34;;;;;;;0.80;0.80;;;7.30;1.00;;;;;;5141294;27;20678;-81
2024/01/02 02:57:00;;;;;;;0.70;0.70;;;7.30;1.00;;;;;;5140618;27;20244;-82
2024/01/02 02:59:26;;;;;;;0.70;0.70;;;7.30;99.90;;;;;;5140044;27;20228;-81
2024/01/02 03:01:51;;;;;;;0.70;0.70;;;7.40;99.90;;;;;;5139259;27;20180;-80
2024/01/02 03:04:17;;;;;;;0.80;0.80;;;7.30;99.90;;;;;;5140528;27;20225;-82
2024/01/02 03:06:42;;;;;;;0.77;0.77;;;7.30;1.00;;;;;;5140069;27;20291;-81
2024/01/02 03:09:08;;;;;;;0.70;0.70;;;7.30;1.00;;;;;;5139993;27;20161;-81
2024/01/02 03:11:34;;;;;;;0.70;0.70;;;7.30;1.00;;;;;;5139639;27;20179;-81
2024/01/02 03:14:00;;;;;;;0.70;0.70;;;7.20;1.00;;;;;;5140348;27;20224;-81
2024/01/02 03:16:25;;;;;;;0.80;0.80;;;7.30;1.00;;;;;;5138221;27;20681;-80
2024/01/02 03:18:51;;;;;;;0.70;0.70;;;7.30;1.00;;;;;;5140140;27;20650;-81
2024/01/02 03:21:16;;;;;;;0.70;0.70;;;7.30;1.00;;;;;;5139450;27;20172;-81
2024/01/02 03:23:42;;;;;;;0.70;0.70;;;7.40;1.00;;;;;;5138455;27;20172;-81
2024/01/02 03:26:11;;;;;;;0.70;0.70;;;7.20;1.00;;;;;;5138091;27;20199;-82
2024/01/02 03:28:37;;;;;;;0.80;0.80;;;7.20;1.00;;;;;;5140298;27;20168;-81
2024/01/02 03:31:05;;;;;;;0.70;0.70;;;7.20;1.00;;;;;;5138598;27;20225;-82
2024/01/02 03:33:31;;;;;;;0.80;0.80;;;7.20;99.90;;;;;;5138648;27;20659;-82
2024/01/02 03:35:57;;;;;;;0.70;0.70;;;7.20;99.90;;;;;;5138235;27;20216;-82
2024/01/02 03:38:22;;;;;;;0.63;0.63;;;7.20;99.90;;;;;;5139389;27;20554;-80
2024/01/02 03:40:48;;;;;;;0.80;0.80;;;7.30;1.00;;;;;;5139747;27;20197;-80
2024/01/02 03:43:13;;;;;;;0.80;0.80;;;7.30;1.00;;;;;;5138174;27;20204;-79
2024/01/02 03:45:39;;;;;;;0.80;0.80;;;7.30;99.90;;;;;;5137683;27;20173;-81
2024/01/02 03:48:05;;;;;;;0.70;0.70;;;7.20;1.00;;;;;;5136432;27;20187;-82
2024/01/02 03:50:30;;;;;;;0.80;0.80;;;7.30;99.90;;;;;;5138993;27;20203;-81
2024/01/02 03:52:56;;;;;;;0.80;0.80;;;7.20;1.00;;;;;;5139191;27;20184;-81
2024/01/02 03:55:21;;;;;;;0.70;0.70;;;7.20;1.00;;;;;;5138257;27;20173;-80
2024/01/02 03:57:47;;;;;;;0.77;0.77;;;7.20;1.00;;;;;;5136537;27;20216;-81
2024/01/02 04:00:13;;;;;;;0.80;0.80;;;7.20;1.00;;;;;;5138966;27;20180;-81
2024/01/02 04:02:39;;;;;;;0.90;0.90;;;6.70;99.90;;;;;;5139178;27;20200;-81
2024/01/02 04:05:07;;;;;;;0.70;0.70;;;7.20;1.00;;;;;;5152184;27;20160;-77
2024/01/02 04:07:32;;;;;;;0.80;0.80;;;7.20;99.90;;;;;;5158666;27;20260;-81
2024/01/02 04:09:58;;;;;;;0.70;0.70;;;7.20;99.90;;;;;;5141525;27;20195;-81
2024/01/02 04:12:24;;;;;;;0.70;0.70;;;7.20;99.90;;;;;;5140425;27;20641;-80
2024/01/02 04:14:49;;;;;;;0.80;0.80;;;7.10;99.90;;;;;;5141154;27;20208;-82
2024/01/02 04:17:15;;;;;;;0.60;0.60;;;7.20;99.90;;;;;;5139650;27;20189;-82
2024/01/02 04:19:40;;;;;;;0.80;0.80;;;7.20;1.00;;;;;;5139745;27;20596;-81
2024/01/02 04:22:06;;;;;;;0.73;0.73;;;7.10;1.00;;;;;;5139784;27;20541;-80
2024/01/02 04:24:31;;;;;;;0.80;0.80;;;7.10;1.00;;;;;;5139206;27;20549;-82
2024/01/02 04:26:57;;;;;;;0.90;0.90;;;7.10;1.00;;;;;;5137396;27;20303;-81
2024/01/02 04:29:22;;;;;;;0.67;0.67;;;7.10;1.00;;;;;;5139487;27;20168;-81
2024/01/02 04:31:48;;;;;;;0.70;0.70;;;7.10;1.00;;;;;;5138357;27;20200;-80
2024/01/02 04:34:14;;;;;;;0.80;0.80;;;7.00;1.00;;;;;;5139136;27;20212;-82
2024/01/02 04:36:43;;;;;;;0.80;0.80;;;7.00;1.00;;;;;;5138228;27;20193;-82
2024/01/02 04:39:09;;;;;;;0.70;0.70;;;7.00;1.00;;;;;;5137812;27;20251;-81
2024/01/02 04:41:34;;;;;;;0.80;0.80;;;7.00;1.00;;;;;;5138961;27;20184;-81
2024/01/02 04:44:00;;;;;;;0.70;0.70;;;7.00;1.00;;;;;;5139425;27;20247;-82
2024/01/02 04:46:27;;;;;;;0.80;0.80;;;7.00;1.00;;;;;;5140264;27;20884;-84
2024/01/02 04:48:54;;;;;;;0.80;0.80;;;7.00;1.00;;;;;;5120767;27;20174;-82
2024/01/02 04:51:19;;;;;;;0.70;0.70;;;7.00;1.00;;;;;;5106580;28;20181;-82
2024/01/02 04:53:45;;;;;;;0.70;0.70;;;7.00;1.00;;;;;;5101836;28;20619;-81
2024/01/02 04:56:11;;;;;;;0.70;0.70;;;7.00;1.00;;;;;;5097116;28;20181;-83
2024/01/02 04:58:37;;;;;;;0.80;0.80;;;6.90;1.00;;;;;;5095284;28;20180;-82
2024/01/02 05:01:03;;;;;;;0.90;0.90;;;6.90;1.00;;;;;;5097313;28;20599;-82
2024/01/02 05:03:29;;;;;;;0.80;0.80;;;6.90;1.00;;;;;;5099302;28;20702;-81
2024/01/02 05:05:55;;;;;;;0.70;0.70;;;6.90;1.00;;;;;;5095119;28;20198;-79
2024/01/02 05:08:20;;;;;;;0.80;0.80;;;6.90;1.00;;;;;;5098993;28;20192;-82
2024/01/02 05:10:46;;;;;;;0.70;0.70;;;6.90;1.00;;;;;;5099606;28;20620;-82
2024/01/02 05:13:11;;;;;;;0.80;0.80;;;6.80;1.00;;;;;;5099186;28;20178;-80
2024/01/02 05:15:37;;;;;;;0.83;0.83;;;6.80;1.00;;;;;;5098770;28;20299;-83
2024/01/02 05:18:03;;;;;;;0.80;0.80;;;6.90;1.00;;;;;;5105763;28;20674;-81
2024/01/02 05:20:29;;;;;;;0.70;0.70;;;6.80;1.00;;;;;;5106867;28;20177;-83
2024/01/02 05:22:54;;;;;;;0.70;0.70;;;6.80;1.00;;;;;;5106082;28;20178;-81
2024/01/02 05:25:20;;;;;;;0.63;0.63;;;6.80;1.00;;;;;;5103928;28;20173;-82
2024/01/02 05:27:46;;;;;;;0.80;0.80;;;6.80;1.00;;;;;;5113047;28;20605;-84
2024/01/02 05:30:12;;;;;;;0.70;0.70;;;6.80;1.00;;;;;;5126166;28;20165;-80
2024/01/02 05:32:37;;;;;;;0.80;0.80;;;6.80;1.00;;;;;;5131022;28;20257;-83
2024/01/02 05:35:04;;;;;;;0.80;0.80;;;6.80;1.00;;;;;;5115663;28;20213;-79
2024/01/02 05:37:29;;;;;;;0.80;0.80;;;6.80;1.00;;;;;;5115352;28;20186;-77
2024/01/02 05:39:55;;;;;;;0.80;0.80;;;6.80;1.00;;;;;;5116144;28;20185;-80
2024/01/02 05:42:21;;;;;;;0.70;0.70;;;6.90;1.00;;;;;;5115760;28;20190;-83
2024/01/02 05:44:47;;;;;;;0.70;0.70;;;6.80;1.00;;;;;;5101762;28;20185;-85
2024/01/02 05:47:12;;;;;;;0.80;0.80;;;6.80;1.00;;;;;;5099574;28;20263;-84
2024/01/02 05:49:38;;;;;;;0.80;0.80;;;6.80;1.00;;;;;;5102877;28;20174;-84
2024/01/02 05:52:05;;;;;;;0.80;0.80;;;6.80;1.00;;;;;;5103491;28;20177;-84
2024/01/02 05:54:32;;;;;;;0.73;0.73;;;6.80;1.00;;;;;;5103407;28;20209;-83
2024/01/02 05:56:58;;;;;;;0.70;0.70;;;6.80;1.00;;;;;;5102222;28;20217;-82
2024/01/02 05:59:24;;;;;;;0.90;0.90;;;6.80;1.00;;;;;;5102788;28;20256;-84
2024/01/02 06:01:49;;;;;;;0.80;0.80;;;6.90;1.00;;;;;;5103306;28;20639;-83
2024/01/02 06:04:15;;;;;;;0.70;0.70;;;6.90;1.00;;;;;;5102708;28;20214;-85
2024/01/02 06:06:40;;;;;;;0.77;0.77;;;6.90;1.00;;;;;;5101199;28;20214;-85
2024/01/02 06:09:06;;;;;;;0.60;0.60;;;6.90;1.00;;;;;;5100502;28;20173;-82
2024/01/02 06:11:31;;;;;;;0.70;0.70;;;6.90;1.00;;;;;;5103031;28;20632;-84
2024/01/02 06:13:57;;;;;;;0.80;0.80;;;6.90;1.00;;;;;;5101300;28;20209;-84
2024/01/02 06:16:22;;;;;;;0.80;0.80;;;6.90;1.00;;;;;;5101574;28;20205;-84
2024/01/02 06:18:48;;;;;;;0.60;0.60;;;6.90;1.00;;;;;;5102925;28;20170;-84
2024/01/02 06:21:14;;;;;;;0.70;0.70;;;6.90;1.00;;;;;;5101725;28;20189;-82
2024/01/02 06:23:40;;;;;;;0.70;0.70;;;7.00;1.00;;;;;;5101451;28;20197;-83
2024/01/02 06:26:06;;;;;;;0.77;0.77;;;6.90;1.00;;;;;;5112743;28;20189;-80
2024/01/02 06:28:31;;;;;;;0.70;0.70;;;7.00;1.00;;;;;;5112934;28;20207;-81
2024/01/02 06:30:57;;;;;;;0.70;0.70;;;7.00;1.00;;;;;;5105755;28;20586;-85
2024/01/02 06:33:24;;;;;;;0.80;0.80;;;7.10;1.00;;;;;;5100301;28;20201;-85
2024/01/02 06:35:50;;;;;;;0.70;0.70;;;7.10;1.00;;;;;;5101062;28;20201;-84
2024/01/02 06:38:16;;;;;;;0.70;0.70;;;7.10;1.00;;;;;;5100515;28;20195;-83
2024/01/02 06:40:42;;;;;;;0.73;0.73;;;7.20;1.00;;;;;;5100858;28;20177;-83
2024/01/02 06:43:07;;;;;;;0.80;0.80;;;7.20;1.00;;;;;;5101338;28;20169;-82
2024/01/02 06:45:33;;;;;;;0.80;0.80;;;7.20;1.00;;;;;;5100656;28;20181;-84
2024/01/02 06:47:58;;;;;;;0.80;0.80;;;7.30;1.00;;;;;;5119474;28;20185;-80
2024/01/02 06:50:24;;;;;;;0.73;0.73;;;7.30;1.00;;;;;;5109754;28;20197;-84
2024/01/02 06:52:49;;;;;;;0.70;0.70;;;7.40;1.00;;;;;;5099989;28;20179;-84
2024/01/02 06:55:15;;;;;;;0.80;0.80;;;7.40;1.00;;;;;;5100706;28;20233;-85
2024/01/02 06:57:40;;;;;;;0.60;0.60;;;7.40;1.00;;;;;;5100953;28;20656;-84
2024/01/02 07:00:07;;;;;;;0.70;0.70;;;7.50;1.00;;;;;;5099617;28;20549;-83
2024/01/02 07:02:33;;;;;;;0.70;0.70;;;7.50;1.00;;;;;;5099518;28;20182;-84
2024/01/02 07:04:59;;;;;;;0.70;0.70;;;7.50;1.00;;;;;;5099513;28;20696;-85
2024/01/02 07:07:25;;;;;;;0.80;0.80;;;7.60;1.00;;;;;;5099187;28;20236;-84
2024/01/02 07:09:51;;;;;;;0.80;0.80;;;7.50;1.00;;;;;;5100546;28;20548;-84
2024/01/02 07:12:17;;;;;;;0.90;0.90;;;7.60;1.00;;;;;;5099800;28;20178;-83
2024/01/02 07:14:43;;;;;;;0.80;0.80;;;7.60;1.00;;;;;;5098864;28;20300;-84
2024/01/02 07:17:09;;;;;;;0.70;0.70;;;7.60;1.00;;;;;;5098683;28;20217;-84
2024/01/02 07:19:34;;;;;;;0.80;0.80;;;7.60;1.00;;;;;;5099570;28;20577;-83
2024/01/02 07:22:00;;;;;;;0.77;0.77;;;7.60;1.00;;;;;;5098622;28;20231;-82
2024/01/02 07:24:26;;;;;;;0.70;0.70;;;7.70;1.00;;;;;;5100049;28;20186;-82
2024/01/02 07:26:51;;;;;;;0.70;0.70;;;7.70;1.00;;;;;;5098151;28;20194;-85
2024/01/02 07:29:17;;;;;;;0.70;0.70;;;7.70;1.00;;;;;;5100132;28;20251;-84
2024/01/02 07:31:43;;;;;;;0.70;0.70;;;7.70;1.00;;;;;;5099595;28;20220;-82
2024/01/02 07:34:08;;;;;;;0.70;0.70;;;7.80;1.00;;;;;;5098597;28;20216;-82
2024/01/02 07:36:34;;;;;;;0.70;0.70;;;7.80;1.00;;;;;;5098835;28;20194;-84
2024/01/02 07:38:59;;;;;;;0.70;0.70;;;7.80;1.00;;;;;;5099680;28;20178;-82
2024/01/02 07:41:25;;;;;;;0.80;0.80;;;7.80;1.00;;;;;;5101055;28;20234;-80
2024/01/02 07:43:50;;;;;;;0.77;0.77;;;7.80;1.00;;;;;;5117498;27;20177;-81
2024/01/02 07:46:19;;;;;;;0.70;0.70;;;7.80;1.00;;;;;;5124783;27;20840;-83
2024/01/02 07:48:45;;;;;;;0.83;0.83;;;7.90;1.00;;;;;;5128810;27;20234;-80
2024/01/02 07:51:10;;;;;;;0.80;0.80;;;7.90;1.00;;;;;;5134980;27;20264;-81
2024/01/02 07:53:36;;;;;;;0.80;0.80;;;7.90;1.00;;;;;;5120317;27;20202;-83
2024/01/02 07:56:04;;;;;;;0.80;0.80;;;7.90;1.00;;;;;;5103905;28;20251;-84
2024/01/02 07:58:30;;;;;;;0.77;0.77;;;8.00;1.00;;;;;;5107730;28;20181;-83
2024/01/02 08:00:55;;;;;;;0.70;0.70;;;7.90;1.00;;;;;;5106779;28;20185;-80
2024/01/02 08:03:21;;;;;;;0.70;0.70;;;7.90;1.00;;;;;;5117586;28;20233;-81
2024/01/02 08:05:47;;;;;;;0.60;0.60;;;7.90;1.00;;;;;;5120715;28;20218;-83
2024/01/02 08:08:13;;;;;;;0.80;0.80;;;7.90;1.00;;;;;;5122826;28;20199;-81
2024/01/02 08:10:38;;;;;;;0.80;0.80;;;7.90;1.00;;;;;;5122791;28;20173;-83
2024/01/02 08:13:04;;;;;;;0.80;0.80;;;7.90;1.00;;;;;;5122738;28;20185;-83
2024/01/02 08:15:30;;;;;;;0.80;0.80;;;7.90;1.00;;;;;;5112848;28;20205;-83
2024/01/02 08:17:57;;;;;;;0.70;0.70;;;7.80;1.00;;;;;;5123940;28;20188;-84
2024/01/02 08:20:23;;;;;;;0.80;0.80;;;7.90;1.00;;;;;;5119722;28;20174;-82
2024/01/02 08:22:48;;;;;;;0.70;0.70;;;7.90;1.00;;;;;;5114095;27;20192;-83
2024/01/02 08:25:14;;;;;;;0.90;0.90;;;7.80;1.00;;;;;;5109837;28;20541;-82
2024/01/02 08:27:39;;;;;;;0.70;0.70;;;8.20;1.00;;;;;;5114357;28;20524;-84
2024/01/02 08:30:07;;;;;;;0.70;0.70;;;7.90;1.00;;;;;;5103292;28;20591;-85
2024/01/02 08:32:33;;;;;;;0.70;0.70;;;7.80;1.00;;;;;;5105635;28;20534;-83
2024/01/02 08:34:59;;;;;;;0.80;0.80;;;7.80;1.00;;;;;;5116948;28;20201;-78
2024/01/02 08:37:26;;;;;;;0.70;0.70;;;7.80;1.00;;;;;;5115791;28;20234;-80
2024/01/02 08:39:53;;;;;;;0.80;0.80;;;7.90;1.00;;;;;;5116145;28;20177;-83
2024/01/02 08:42:19;;;;;;;0.80;0.80;;;7.90;1.00;;;;;;5119302;28;20246;-80
2024/01/02 08:44:44;;;;;;;0.77;0.77;;;8.00;1.00;;;;;;5120064;28;20182;-83
2024/01/02 08:47:10;;;;;;;0.70;0.70;;;8.00;1.00;;;;;;5119017;28;20197;-83
2024/01/02 08:49:35;;;;;;;0.87;0.87;;;8.00;1.00;;;;;;5117845;28;20177;-81
2024/01/02 08:52:01;;;;;;;0.80;0.80;;;8.00;1.00;;;;;;5119255;28;20177;-83
2024/01/02 08:54:26;;;;;;;0.77;0.77;;;8.00;1.00;;;;;;5106776;28;20204;-83
2024/01/02 08:56:52;;;;;;;0.70;0.70;;;8.10;1.00;;;;;;5107734;28;20194;-83
2024/01/02 08:59:17;;;;;;;0.70;0.70;;;8.10;1.00;;;;;;5110543;28;20181;-81
2024/01/02 09:01:52;;;;;;;0.60;0.60;;;8.10;1.00;;;;;;5116451;28;20184;-83
2024/01/02 09:04:18;;;;;;;0.80;0.80;;;8.20;1.00;;;;;;5116128;28;20235;-81
2024/01/02 09:06:44;;;;;;;0.70;0.70;;;8.20;1.00;;;;;;5121536;28;20204;-82
2024/01/02 09:09:10;;;;;;;0.73;0.73;;;8.20;1.00;;;;;;5121797;28;20207;-81
2024/01/02 09:11:37;;;;;;;0.80;0.80;;;8.20;1.00;;;;;;5120229;28;20174;-87
2024/01/02 09:14:03;;;;;;;0.67;0.67;;;8.30;1.00;;;;;;5109809;28;20571;-84
2024/01/02 09:16:32;;;;;;;0.60;0.60;;;8.30;1.00;;;;;;5112947;28;20616;-85
2024/01/02 09:18:58;;;;;;;0.73;0.73;;;8.30;1.00;;;;;;5112615;28;20174;-84
2024/01/02 09:21:23;;;;;;;0.77;0.77;;;8.40;1.00;;;;;;5114424;28;20174;-84
2024/01/02 09:23:49;;;;;;;0.70;0.70;;;8.30;1.00;;;;;;5112297;28;20178;-80
2024/01/02 09:26:19;;;;;;;0.70;0.70;;;8.30;1.00;;;;;;5113666;28;20208;-80
2024/01/02 09:28:45;;;;;;;0.77;0.77;;;8.40;1.00;;;;;;5115292;28;20165;-81
2024/01/02 09:31:12;;;;;;;0.60;0.60;;;8.90;1.00;;;;;;5115031;28;20639;-80
2024/01/02 09:33:40;;;;;;;0.70;0.70;;;8.50;1.00;;;;;;5114451;28;20197;-82
2024/01/02 09:36:08;;;;;;;0.70;0.70;;;8.50;1.00;;;;;;5108751;28;20189;-85
2024/01/02 09:38:36;;;;;;;0.80;0.80;;;8.60;1.00;;;;;;5121723;28;20257;-84
2024/01/02 09:41:14;;;;;;;0.73;0.73;;;8.60;1.00;;;;;;5122204;28;20173;-83
2024/01/02 09:43:48;;;;;;;0.80;0.80;;;8.60;1.00;;;;;;5121962;28;20184;-83
2024/01/02 09:46:34;;;;;;;0.70;0.70;;;8.70;1.00;;;;;;5121018;28;20201;-82
2024/01/02 09:49:20;;;;;;;0.80;0.80;;;8.70;1.00;;;;;;5115049;28;20855;-83
2024/01/02 09:52:03;;;;;;;0.70;0.70;;;8.70;1.00;;;;;;5107989;28;20198;-85
2024/01/02 09:55:16;;;;;;;0.60;0.60;;;8.70;1.00;;;;;;5103398;28;20204;-84
2024/01/02 09:57:48;;;;;;;0.70;0.70;;;8.80;1.00;;;;;;5092753;28;20249;-86
2024/01/02 10:00:26;;;;;;;0.67;0.67;;;8.80;1.00;;;;;;5098623;28;20264;-86
2024/01/02 10:03:22;;;;;;;0.70;0.70;;;8.80;1.00;;;;;;5100971;28;20261;-85
2024/01/02 10:06:07;;;;;;;0.70;0.70;;;8.90;1.00;;;;;;5108835;28;20228;-81
2024/01/02 10:09:16;;;;;;;0.80;0.80;;;8.90;1.00;;;;;;5131251;28;20260;-82
2024/01/02 10:11:52;;;;;;;0.80;0.80;;;8.90;1.00;;;;;;5103706;28;20655;-84
2024/01/02 10:14:32;;;;;;;0.60;0.60;;;9.00;1.00;;;;;;5106094;28;20198;-85
2024/01/02 10:17:36;;;;;;;0.80;0.80;;;9.00;1.00;;;;;;5110928;28;20196;-83
2024/01/02 10:20:37;;;;;;;0.60;0.60;;;9.10;1.00;;;;;;5102123;28;20185;-85
2024/01/02 10:23:31;;;;;;;0.70;0.70;;;9.10;1.00;;;;;;5117715;28;20188;-81
2024/01/02 10:26:03;;;;;;;0.70;0.70;;;9.10;1.00;;;;;;5103199;28;20178;-82
2024/01/02 10:28:32;;;;;;;0.60;0.60;;;9.20;1.00;;;;;;5118167;28;20177;-84
2024/01/02 10:31:25;;;;;;;0.70;0.70;;;9.20;1.00;;;;;;5108438;28;20174;-81
2024/01/02 10:33:55;;;;;;;0.70;0.70;;;9.30;1.00;;;;;;5105415;28;20338;-82
2024/01/02 10:36:22;;;;;;;0.60;0.60;;;9.30;1.00;;;;;;5114531;27;20189;-83
2024/01/02 10:39:17;;;;;;;0.70;0.70;;;9.30;1.00;;;;;;5126049;28;20175;-82
2024/01/02 10:42:01;;;;;;;0.77;0.77;;;9.30;1.00;;;;;;5136451;27;20272;-83
2024/01/02 10:44:59;;;;;;;0.70;0.70;;;9.30;1.00;;;;;;5146337;27;20577;-84
2024/01/02 10:47:47;;;;;;;0.70;0.70;;;9.40;1.00;;;;;;5136386;27;20309;-80
2024/01/02 10:50:18;;;;;;;0.80;0.80;;;9.40;1.00;;;;;;5131893;28;20200;-80
2024/01/02 10:53:09;;;;;;;0.70;0.70;;;9.40;1.00;;;;;;5136473;28;20359;-81
2024/01/02 10:55:48;;;;;;;0.80;0.80;;;9.40;1.00;;;;;;5116311;28;20185;-82
2024/01/02 10:58:22;;;;;;;0.70;0.70;;;9.50;1.00;;;;;;5103715;28;20201;-84
2024/01/02 11:01:06;;;;;;;0.80;0.80;;;9.50;99.90;;;;;;5105146;28;20258;-82
2024/01/02 11:03:45;;;;;;;0.70;0.70;;;9.50;99.90;;;;;;5131007;28;20173;-81
2024/01/02 11:06:17;;;;;;;0.80;0.80;;;9.50;1.00;;;;;;5130037;28;20208;-81
2024/01/02 11:09:03;;;;;;;0.63;0.63;;;9.50;99.90;;;;;;5129829;28;20192;-82
2024/01/02 11:11:33;;;;;;;0.80;0.80;;;9.60;99.90;;;;;;5129385;28;20172;-84
2024/01/02 11:14:00;;;;;;;0.70;0.70;;;9.70;99.90;;;;;;5119837;28;20204;-83
2024/01/02 11:16:28;;;;;;;0.70;0.70;;;9.70;99.90;;;;;;5118526;28;20212;-81
2024/01/02 11:19:00;;;;;;;0.73;0.73;;;9.70;99.90;;;;;;5115300;28;20173;-85
2024/01/02 11:21:45;;;;;;;0.70;0.70;;;9.70;99.90;;;;;;5110326;27;20182;-84
2024/01/02 11:24:14;;;;;;;0.60;0.60;;;9.80;99.90;;;;;;5108978;28;20166;-83
2024/01/02 11:26:41;;;;;;;0.70;0.70;;;9.80;1.00;;;;;;5119442;28;20215;-81
2024/01/02 11:29:15;;;;;;;0.70;0.70;;;9.80;99.90;;;;;;5126561;28;20174;-83
2024/01/02 11:31:41;;;;;;;0.60;0.60;;;10.20;1.00;;;;;;5119372;28;20166;-85
2024/01/02 11:34:32;;;;;;;0.63;0.63;;;10.00;1.00;;;;;;5108760;28;20197;-84
2024/01/02 11:37:37;;;;;;;0.70;0.70;;;10.00;1.00;;;;;;5127298;28;20267;-83
2024/01/02 11:40:34;;;;;;;0.60;0.60;;;10.10;21.70;;;;;;5095434;28;20208;-85
2024/01/02 11:43:06;;;;;;;0.70;0.70;;;10.20;1.00;;;;;;5109953;28;20162;-83
2024/01/02 11:45:33;;;;;;;0.70;0.70;;;10.20;1.00;;;;;;5118343;27;20181;-85
2024/01/02 11:48:40;;;;;;;0.73;0.73;;;10.30;1.00;;;;;;5115680;28;20176;-85
2024/01/02 11:51:20;;;;;;;0.60;0.60;;;10.30;99.90;;;;;;5083660;28;20192;-84
2024/01/02 11:54:00;;;;;;;0.77;0.77;;;10.50;99.90;;;;;;5104101;28;20581;-83
2024/01/02 11:56:28;;;;;;;0.60;0.60;;;10.50;99.90;;;;;;5117499;27;20195;-83
2024/01/02 11:59:13;;;;;;;0.50;0.50;;;10.50;95.00;;;;;;5122119;28;20180;-79
2024/01/02 12:01:54;;;;;;;0.70;0.70;;;10.50;99.90;;;;;;5121336;27;20271;-84
2024/01/02 12:04:46;;;;;;;0.70;0.70;;;10.50;1.00;;;;;;5111033;28;20170;-84
2024/01/02 12:07:28;;;;;;;0.60;0.60;;;10.50;99.90;;;;;;5107292;28;20220;-83
2024/01/02 12:09:56;;;;;;;0.60;0.60;;;10.50;99.90;;;;;;5113361;28;20204;-83
2024/01/02 12:13:02;;;;;;;0.63;0.63;;;10.50;1.00;;;;;;5112606;28;20343;-84
2024/01/02 12:15:39;;;;;;;0.60;0.60;;;10.50;99.90;;;;;;5111796;28;20230;-83
2024/01/02 12:18:06;;;;;;;0.77;0.77;;;10.50;1.00;;;;;;5113072;28;20548;-81
2024/01/02 12:20:57;;;;;;;0.70;0.70;;;10.50;99.90;;;;;;5115801;27;20177;-83
2024/01/02 12:23:24;;;;;;;0.70;0.70;;;10.50;99.90;;;;;;5111402;28;20173;-83
2024/01/02 12:25:57;;;;;;;0.60;0.60;;;10.40;99.90;;;;;;5111257;28;20254;-86
2024/01/02 12:28:24;;;;;;;0.60;0.60;;;10.60;99.90;;;;;;5106596;28;20169;-81
2024/01/02 12:31:14;;;;;;;0.67;0.67;;;10.60;1.00;;;;;;5110282;28;20632;-80
2024/01/02 12:33:52;;;;;;;0.60;0.60;;;10.60;1.00;;;;;;5123356;28;20196;-82
2024/01/02 12:36:36;;;;;;;0.60;0.60;;;10.50;1.00;;;;;;5102844;28;20731;-84
2024/01/02 12:39:06;;;;;;;0.70;0.70;;;10.40;1.00;;;;;;5110750;28;20170;-83
2024/01/02 12:41:39;;;;;;;0.60;0.60;;;10.40;1.00;;;;;;5114551;27;20193;-83
2024/01/02 12:44:06;;;;;;;0.70;0.70;;;10.40;1.00;;;;;;5130712;27;20558;-81
2024/01/02 12:46:56;;;;;;;0.70;0.70;;;10.30;1.00;;;;;;5134452;27;20537;-83
2024/01/02 12:49:28;;;;;;;0.80;0.80;;;10.30;1.00;;;;;;5122994;27;20176;-86
2024/01/02 12:52:03;;;;;;;0.80;0.80;;;10.30;1.00;;;;;;5134215;27;20164;-83
2024/01/02 12:54:29;;;;;;;0.67;0.67;;;10.30;1.00;;;;;;5120475;27;20208;-81
2024/01/02 12:57:01;;;;;;;0.67;0.67;;;10.30;1.00;;;;;;5113507;27;20280;-84
2024/01/02 12:59:28;;;;;;;0.60;0.60;;;10.30;1.00;;;;;;5110248;27;20173;-81
2024/01/02 13:01:54;;;;;;;0.70;0.70;;;10.30;1.00;;;;;;5109164;28;20197;-83
2024/01/02 13:04:21;;;;;;;0.70;0.70;;;10.30;1.00;;;;;;5110953;27;20169;-83
2024/01/02 13:06:46;;;;;;;0.73;0.73;;;10.30;1.00;;;;;;5128874;27;20258;-83
2024/01/02 13:09:17;;;;;;;0.70;0.70;;;10.30;10.00;;;;;;5106655;28;20522;-81
2024/01/02 13:11:42;;;;;;;0.70;0.70;;;10.20;99.90;;;;;;5108599;28;20249;-83
2024/01/02 13:14:09;;;;;;;0.73;0.73;;;10.20;99.90;;;;;;5112058;27;20193;-84